Time;durP1;ratioP1;P1;durP2;ratioP2;P2;SDS_P1;SDS_P2;PMS_P1;PMS_P2;Temp;Humidity;BMP_temperature;BMP_pressure;BME280_temperature;BME280_humidity;BME280_pressure;Samples;Min_cycle;Max_cycle;Signal;HPM_P1;HPM_P2
2023/03/04 00:02:10;;;;;;;53.10;27.00;;;;;;;-0.40;100.00;99486.64;103642;1309;23042;-29
2023/03/04 00:04:36;;;;;;;65.70;35.00;;;;;;;-0.51;100.00;99486.28;103568;1314;22695;-30
2023/03/04 00:07:02;;;;;;;37.30;20.00;;;;;;;-0.54;100.00;99472.31;103590;1314;23056;-34
2023/03/04 00:09:28;;;;;;;53.90;22.20;;;;;;;-0.62;100.00;99477.54;103673;1314;22815;-33
2023/03/04 00:11:54;;;;;;;46.00;23.00;;;;;;;-0.70;100.00;99470.93;103757;1315;23005;-35
2023/03/04 00:14:20;;;;;;;56.10;24.00;;;;;;;-0.76;100.00;99472.70;103543;1311;587899;-30
2023/03/04 00:16:47;;;;;;;56.40;29.40;;;;;;;-0.95;100.00;99469.06;104099;1311;23398;-33
2023/03/04 00:19:13;;;;;;;39.40;18.90;;;;;;;-0.78;100.00;99474.73;103898;1311;24229;-28
2023/03/04 00:21:39;;;;;;;60.60;33.90;;;;;;;-0.73;100.00;99477.35;104077;1313;24473;-34
2023/03/04 00:24:05;;;;;;;63.30;20.10;;;;;;;-26.01;79.80;79575.73;103220;1313;1001247;-30
2023/03/04 00:26:31;;;;;;;46.90;24.10;;;;;;;-128.00;-1.00;-1.00;100373;1313;1003144;-34
2023/03/04 00:28:57;;;;;;;58.00;19.80;;;;;;;-128.00;-1.00;-1.00;100383;1313;1003048;-34
2023/03/04 00:31:23;;;;;;;62.70;23.70;;;;;;;-128.00;-1.00;-1.00;100187;1313;1002933;-34
2023/03/04 00:33:49;;;;;;;63.80;30.10;;;;;;;-128.00;-1.00;-1.00;100396;1313;1004272;-34
2023/03/04 00:36:15;;;;;;;76.80;37.30;;;;;;;-128.00;-1.00;-1.00;100397;1313;1003841;-34
2023/03/04 00:38:41;;;;;;;50.40;17.00;;;;;;;-128.00;-1.00;-1.00;100454;1313;1004987;-30
2023/03/04 00:41:06;;;;;;;41.00;16.90;;;;;;;-128.00;-1.00;-1.00;100455;1313;1003335;-35
2023/03/04 00:43:32;;;;;;;61.20;25.20;;;;;;;-128.00;-1.00;-1.00;100387;1313;1003658;-35
2023/03/04 00:45:58;;;;;;;46.70;25.40;;;;;;;-128.00;-1.00;-1.00;100250;1313;1002883;-30
2023/03/04 00:48:24;;;;;;;50.40;25.60;;;;;;;-128.00;-1.00;-1.00;100386;1313;1004094;-31
2023/03/04 00:50:52;;;;;;;57.70;22.90;;;;;;;-128.00;-1.00;-1.00;100440;1312;1003262;-30
2023/03/04 00:53:19;;;;;;;58.60;22.40;;;;;;;-128.00;-1.00;-1.00;100613;1313;1003641;-30
2023/03/04 00:55:45;;;;;;;63.80;23.50;;;;;;;-128.00;-1.00;-1.00;100419;1313;1003340;-30
2023/03/04 00:58:11;;;;;;;51.90;27.00;;;;;;;-128.00;-1.00;-1.00;100524;1313;1005150;-31
2023/03/04 01:00:36;;;;;;;52.70;27.00;;;;;;;-128.00;-1.00;-1.00;100393;1312;1003701;-31
2023/03/04 01:03:02;;;;;;;71.90;31.60;;;;;;;-128.00;-1.00;-1.00;100196;1313;1003418;-35
2023/03/04 01:05:28;;;;;;;50.50;22.40;;;;;;;-128.00;-1.00;-1.00;100480;1313;1003772;-30
2023/03/04 01:07:54;;;;;;;61.50;34.10;;;;;;;-128.00;-1.00;-1.00;100428;1313;1003158;-35
2023/03/04 01:10:20;;;;;;;40.20;19.70;;;;;;;-128.00;-1.00;-1.00;100454;1313;1003090;-34
2023/03/04 01:12:46;;;;;;;44.00;18.30;;;;;;;-128.00;-1.00;-1.00;100417;1313;1004840;-34
2023/03/04 01:15:12;;;;;;;50.10;24.20;;;;;;;-128.00;-1.00;-1.00;100366;1313;1003451;-35
2023/03/04 01:17:38;;;;;;;45.10;18.80;;;;;;;-128.00;-1.00;-1.00;100544;1313;1003730;-33
2023/03/04 01:20:04;;;;;;;39.30;16.40;;;;;;;-128.00;-1.00;-1.00;100562;1310;1003899;-29
2023/03/04 01:22:30;;;;;;;59.70;22.00;;;;;;;-128.00;-1.00;-1.00;100530;1310;1003816;-28
2023/03/04 01:24:56;;;;;;;59.20;29.30;;;;;;;-128.00;-1.00;-1.00;100539;1310;1003365;-28
2023/03/04 01:27:22;;;;;;;58.10;20.70;;;;;;;-128.00;-1.00;-1.00;100569;1310;1002958;-29
2023/03/04 01:29:48;;;;;;;47.10;22.30;;;;;;;-128.00;-1.00;-1.00;100543;1310;1003176;-28
2023/03/04 01:32:14;;;;;;;53.00;21.50;;;;;;;-128.00;-1.00;-1.00;100502;1310;1004145;-29
2023/03/04 01:34:40;;;;;;;31.30;18.70;;;;;;;-128.00;-1.00;-1.00;100551;1310;1003083;-33
2023/03/04 01:37:06;;;;;;;38.10;18.20;;;;;;;-128.00;-1.00;-1.00;100596;1310;1004249;-34
2023/03/04 01:39:32;;;;;;;54.80;22.40;;;;;;;-128.00;-1.00;-1.00;100600;1310;1003734;-30
2023/03/04 01:41:57;;;;;;;55.60;27.30;;;;;;;-128.00;-1.00;-1.00;100528;1310;1003462;-35
2023/03/04 01:44:23;;;;;;;39.90;14.30;;;;;;;-128.00;-1.00;-1.00;100636;1310;1002749;-30
2023/03/04 01:46:51;;;;;;;32.80;15.60;;;;;;;-128.00;-1.00;-1.00;100404;1310;1003258;-30
2023/03/04 01:49:17;;;;;;;14.40;8.30;;;;;;;-128.00;-1.00;-1.00;100470;1310;1004147;-34
2023/03/04 01:51:43;;;;;;;46.10;20.60;;;;;;;-128.00;-1.00;-1.00;100469;1310;1002917;-29
2023/03/04 01:54:09;;;;;;;51.50;14.50;;;;;;;-128.00;-1.00;-1.00;100641;1310;1002930;-34
2023/03/04 01:56:36;;;;;;;65.60;28.50;;;;;;;-128.00;-1.00;-1.00;100557;1310;1003196;-30
2023/03/04 01:59:13;;;;;;;55.70;20.20;;;;;;;-128.00;-1.00;-1.00;100688;1310;1003481;-30
2023/03/04 02:01:40;;;;;;;32.50;15.30;;;;;;;-128.00;-1.00;-1.00;100621;1307;1002621;-31
2023/03/04 02:04:06;;;;;;;40.80;20.00;;;;;;;-128.00;-1.00;-1.00;100735;1310;1003305;-31
2023/03/04 02:06:33;;;;;;;55.40;27.50;;;;;;;-128.00;-1.00;-1.00;100412;1310;1003604;-29
2023/03/04 02:08:59;;;;;;;53.10;17.00;;;;;;;-128.00;-1.00;-1.00;100532;1310;1004449;-30
2023/03/04 02:11:25;;;;;;;46.90;15.30;;;;;;;-128.00;-1.00;-1.00;100509;1310;1002987;-30
2023/03/04 02:13:51;;;;;;;32.40;12.60;;;;;;;-128.00;-1.00;-1.00;100535;1310;1002867;-32
2023/03/04 02:16:17;;;;;;;41.30;14.00;;;;;;;-128.00;-1.00;-1.00;100700;1310;1003073;-36
2023/03/04 02:18:43;;;;;;;28.70;9.50;;;;;;;-128.00;-1.00;-1.00;100637;1310;1002827;-30
2023/03/04 02:21:16;;;;;;;27.70;11.30;;;;;;;-128.00;-1.00;-1.00;100528;1304;1003001;-29
2023/03/04 02:23:48;;;;;;;40.60;20.60;;;;;;;-128.00;-1.00;-1.00;100627;1307;1003370;-30
2023/03/04 02:26:16;;;;;;;40.10;16.90;;;;;;;-128.00;-1.00;-1.00;100694;1287;1002711;-33
2023/03/04 02:28:42;;;;;;;34.70;14.60;;;;;;;-128.00;-1.00;-1.00;100461;1310;1003112;-29
2023/03/04 02:31:29;;;;;;;35.70;17.80;;;;;;;-128.00;-1.00;-1.00;100478;1310;1003486;-30
2023/03/04 02:33:56;;;;;;;27.20;13.30;;;;;;;-128.00;-1.00;-1.00;100548;1310;1003117;-30
2023/03/04 02:36:22;;;;;;;35.00;15.10;;;;;;;-128.00;-1.00;-1.00;100657;1310;1002502;-30
2023/03/04 02:38:49;;;;;;;26.60;13.50;;;;;;;-128.00;-1.00;-1.00;100694;1310;1003845;-33
2023/03/04 02:41:16;;;;;;;19.00;9.40;;;;;;;-128.00;-1.00;-1.00;100588;1310;1001989;-34
2023/03/04 02:43:44;;;;;;;21.40;10.70;;;;;;;-128.00;-1.00;-1.00;100490;1310;1002884;-33
2023/03/04 02:46:11;;;;;;;43.60;16.90;;;;;;;-128.00;-1.00;-1.00;100589;1304;1002473;-31
2023/03/04 02:48:37;;;;;;;46.40;17.70;;;;;;;-128.00;-1.00;-1.00;100683;1310;1003602;-30
2023/03/04 02:51:03;;;;;;;22.00;11.30;;;;;;;-128.00;-1.00;-1.00;100564;1307;1002686;-31
2023/03/04 02:53:29;;;;;;;38.40;13.90;;;;;;;-128.00;-1.00;-1.00;100578;1310;1003619;-30
2023/03/04 02:55:55;;;;;;;29.80;15.10;;;;;;;-128.00;-1.00;-1.00;100631;1310;1003167;-35
2023/03/04 02:58:20;;;;;;;23.80;14.80;;;;;;;-128.00;-1.00;-1.00;100529;1310;1002874;-35
2023/03/04 03:00:46;;;;;;;22.70;13.70;;;;;;;-128.00;-1.00;-1.00;100749;1310;1004570;-30
2023/03/04 03:03:12;;;;;;;26.80;14.80;;;;;;;-128.00;-1.00;-1.00;100584;1310;1003310;-29
2023/03/04 03:05:38;;;;;;;35.20;14.20;;;;;;;-128.00;-1.00;-1.00;100511;1310;1003557;-31
2023/03/04 03:08:04;;;;;;;17.50;8.70;;;;;;;-128.00;-1.00;-1.00;100605;1310;1004607;-33
2023/03/04 03:10:30;;;;;;;28.40;10.10;;;;;;;-128.00;-1.00;-1.00;100635;1310;1003317;-32
2023/03/04 03:12:56;;;;;;;30.70;16.90;;;;;;;-128.00;-1.00;-1.00;100606;1310;1003167;-29
2023/03/04 03:15:22;;;;;;;31.80;15.40;;;;;;;-128.00;-1.00;-1.00;100617;1310;1004873;-28
2023/03/04 03:17:48;;;;;;;25.00;13.80;;;;;;;-128.00;-1.00;-1.00;100598;1310;1003452;-33
2023/03/04 03:20:14;;;;;;;37.30;13.40;;;;;;;-128.00;-1.00;-1.00;100648;1310;1003539;-30
2023/03/04 03:22:40;;;;;;;34.70;16.80;;;;;;;-128.00;-1.00;-1.00;100562;1310;1003011;-33
2023/03/04 03:25:07;;;;;;;21.90;10.10;;;;;;;-128.00;-1.00;-1.00;100542;1310;1003598;-29
2023/03/04 03:27:33;;;;;;;29.00;14.90;;;;;;;-128.00;-1.00;-1.00;100501;1310;1003146;-34
2023/03/04 03:29:59;;;;;;;27.80;14.60;;;;;;;-128.00;-1.00;-1.00;100566;1310;1004163;-30
2023/03/04 03:32:25;;;;;;;35.10;14.40;;;;;;;-128.00;-1.00;-1.00;100763;1310;1003114;-30
2023/03/04 03:34:51;;;;;;;28.10;13.90;;;;;;;-128.00;-1.00;-1.00;100464;1310;1003604;-34
2023/03/04 03:37:17;;;;;;;44.90;11.20;;;;;;;-128.00;-1.00;-1.00;100588;1310;1003785;-36
2023/03/04 03:39:42;;;;;;;17.60;9.80;;;;;;;-128.00;-1.00;-1.00;100598;1310;1002851;-30
2023/03/04 03:42:08;;;;;;;33.80;16.60;;;;;;;-128.00;-1.00;-1.00;100654;1310;1002869;-34
2023/03/04 03:44:34;;;;;;;25.00;8.90;;;;;;;-128.00;-1.00;-1.00;100417;1310;1002581;-29
2023/03/04 03:47:01;;;;;;;38.30;12.90;;;;;;;-128.00;-1.00;-1.00;100575;1310;1003922;-31
2023/03/04 03:49:27;;;;;;;24.10;11.60;;;;;;;-128.00;-1.00;-1.00;100627;1310;1004572;-29
2023/03/04 03:51:52;;;;;;;21.10;13.60;;;;;;;-128.00;-1.00;-1.00;100736;1310;1004277;-34
2023/03/04 03:54:18;;;;;;;23.00;14.60;;;;;;;-128.00;-1.00;-1.00;100554;1310;1004191;-30
2023/03/04 03:56:44;;;;;;;27.30;16.20;;;;;;;-128.00;-1.00;-1.00;100568;1310;1003470;-29
2023/03/04 03:59:10;;;;;;;27.00;12.40;;;;;;;-128.00;-1.00;-1.00;100632;1310;1004351;-30
2023/03/04 04:01:36;;;;;;;35.30;19.40;;;;;;;-128.00;-1.00;-1.00;100564;1310;1002523;-34
2023/03/04 04:04:02;;;;;;;34.60;14.10;;;;;;;-128.00;-1.00;-1.00;100464;1310;1002976;-34
2023/03/04 04:06:27;;;;;;;38.20;17.30;;;;;;;-128.00;-1.00;-1.00;100390;1310;1003756;-35
2023/03/04 04:08:53;;;;;;;32.10;12.60;;;;;;;-128.00;-1.00;-1.00;100435;1310;1002183;-35
2023/03/04 04:11:19;;;;;;;33.20;13.10;;;;;;;-128.00;-1.00;-1.00;100491;1310;1005130;-33
2023/03/04 04:13:45;;;;;;;26.30;16.10;;;;;;;-128.00;-1.00;-1.00;100432;1310;1002574;-30
2023/03/04 04:16:11;;;;;;;35.40;22.80;;;;;;;-128.00;-1.00;-1.00;100493;1310;1003018;-34
2023/03/04 04:18:36;;;;;;;29.90;12.60;;;;;;;-128.00;-1.00;-1.00;100476;1310;1003833;-35
2023/03/04 04:21:03;;;;;;;33.40;15.60;;;;;;;-128.00;-1.00;-1.00;100644;1310;1004092;-29
2023/03/04 04:23:29;;;;;;;28.30;12.30;;;;;;;-128.00;-1.00;-1.00;100644;1310;1002828;-30
2023/03/04 04:25:55;;;;;;;33.40;14.20;;;;;;;-128.00;-1.00;-1.00;100554;1310;1002877;-34
2023/03/04 04:28:21;;;;;;;37.40;13.40;;;;;;;-128.00;-1.00;-1.00;100585;1310;1004745;-33
2023/03/04 04:30:47;;;;;;;34.70;19.20;;;;;;;-128.00;-1.00;-1.00;100235;1310;1004417;-32
2023/03/04 04:33:13;;;;;;;32.80;19.40;;;;;;;-128.00;-1.00;-1.00;100457;1310;1002831;-34
2023/03/04 04:35:38;;;;;;;26.20;12.70;;;;;;;-128.00;-1.00;-1.00;100579;1310;1003141;-29
2023/03/04 05:16:45;;;;;;;19.20;12.50;;;;;;;-0.48;100.00;99164.01;104374;1304;558155;-33
2023/03/04 05:19:12;;;;;;;22.70;10.10;;;;;;;-0.15;100.00;99165.27;104296;1304;288412;-34
2023/03/04 05:21:38;;;;;;;12.60;8.50;;;;;;;-0.17;100.00;99161.52;104594;1304;25256;-34
2023/03/04 05:24:04;;;;;;;17.20;9.30;;;;;;;-0.17;100.00;99163.80;104585;1302;24288;-37
2023/03/04 05:26:30;;;;;;;19.10;11.60;;;;;;;-0.10;100.00;99160.75;104538;1302;23167;-34
2023/03/04 05:28:55;;;;;;;27.10;17.10;;;;;;;0.02;100.00;99161.48;104637;1302;23040;-29
2023/03/04 05:31:21;;;;;;;26.80;10.10;;;;;;;-0.09;100.00;99172.98;104523;1302;22676;-33
2023/03/04 05:33:47;;;;;;;23.80;12.10;;;;;;;0.12;100.00;99173.06;104704;1302;23171;-33
2023/03/04 05:36:13;;;;;;;24.40;15.30;;;;;;;-0.05;100.00;99171.02;104623;1302;22545;-36
2023/03/04 05:38:39;;;;;;;19.10;10.40;;;;;;;0.06;100.00;99170.64;104494;1295;23029;-30
2023/03/04 05:41:05;;;;;;;20.40;13.00;;;;;;;0.20;100.00;99169.50;104572;1305;22663;-35
2023/03/04 05:43:33;;;;;;;28.70;11.90;;;;;;;0.19;100.00;99158.02;104633;1305;22791;-33
2023/03/04 05:45:58;;;;;;;34.20;17.20;;;;;;;0.04;100.00;99168.99;104535;1294;23964;-30
2023/03/04 05:48:24;;;;;;;31.90;14.30;;;;;;;0.24;100.00;99169.55;104483;1302;24311;-34
2023/03/04 05:50:55;;;;;;;31.10;15.20;;;;;;;0.13;99.98;99176.86;104580;1302;24389;-29
2023/03/04 05:53:20;;;;;;;27.30;11.00;;;;;;;-0.06;100.00;99180.67;104557;1305;24286;-29
2023/03/04 05:55:46;;;;;;;23.20;10.90;;;;;;;0.12;100.00;99177.96;104487;1289;25601;-34
2023/03/04 05:58:12;;;;;;;27.70;12.40;;;;;;;0.12;100.00;99176.10;104582;1299;23032;-33
2023/03/04 06:00:38;;;;;;;28.20;15.10;;;;;;;0.22;100.00;99179.80;104425;1305;22941;-34
2023/03/04 06:03:04;;;;;;;19.70;13.50;;;;;;;0.15;100.00;99178.92;104588;1304;22609;-34
2023/03/04 06:05:30;;;;;;;25.60;13.10;;;;;;;0.10;100.00;99174.68;104670;1295;24273;-33
2023/03/04 06:07:56;;;;;;;26.60;16.90;;;;;;;-0.03;100.00;99182.98;104513;1296;22570;-34
2023/03/04 06:10:22;;;;;;;39.70;22.60;;;;;;;0.12;100.00;99174.30;104497;1299;23170;-30
2023/03/04 06:12:48;;;;;;;38.00;14.40;;;;;;;0.24;100.00;99173.98;104535;1305;22669;-34
2023/03/04 06:15:13;;;;;;;45.30;14.50;;;;;;;0.24;100.00;99179.38;104610;1305;24317;-31
2023/03/04 06:17:40;;;;;;;25.70;16.60;;;;;;;0.29;100.00;99183.92;104576;1305;24265;-29
2023/03/04 06:20:07;;;;;;;22.60;12.20;;;;;;;0.44;100.00;99190.66;104519;1301;22811;-33
2023/03/04 06:22:33;;;;;;;25.10;16.40;;;;;;;0.22;100.00;99185.77;104562;1304;22795;-29
2023/03/04 06:24:59;;;;;;;36.30;17.30;;;;;;;0.22;100.00;99180.45;104513;1302;23028;-34
2023/03/04 06:27:25;;;;;;;23.50;16.10;;;;;;;0.48;99.86;99186.09;104490;1305;24260;-31
2023/03/04 06:29:52;;;;;;;29.70;17.70;;;;;;;0.72;98.25;99186.55;104499;1305;22788;-34
2023/03/04 06:32:18;;;;;;;35.20;23.60;;;;;;;0.55;98.32;99188.98;104494;1294;23038;-28
2023/03/04 06:34:43;;;;;;;23.20;12.30;;;;;;;0.44;98.87;99176.73;104472;1303;22746;-32
2023/03/04 06:37:09;;;;;;;18.70;13.00;;;;;;;0.23;99.67;99184.39;104475;1302;24479;-36
2023/03/04 06:39:35;;;;;;;23.30;11.70;;;;;;;0.38;99.74;99186.97;104382;1301;23031;-33
2023/03/04 06:42:01;;;;;;;18.10;12.70;;;;;;;0.37;98.92;99191.14;104501;1294;22679;-29
2023/03/04 06:44:27;;;;;;;27.70;11.00;;;;;;;0.46;98.96;99188.52;104425;1305;24338;-33
2023/03/04 06:46:53;;;;;;;18.00;10.20;;;;;;;0.32;99.23;99191.16;104408;1305;22675;-34
2023/03/04 06:49:19;;;;;;;19.70;11.10;;;;;;;0.41;99.13;99196.95;104461;1301;22663;-30
2023/03/04 06:51:44;;;;;;;14.30;8.50;;;;;;;0.51;98.22;99199.49;104480;1302;24820;-33
2023/03/04 06:54:10;;;;;;;17.10;9.10;;;;;;;0.47;98.39;99195.11;104506;1302;23156;-30
2023/03/04 06:56:36;;;;;;;23.90;11.10;;;;;;;0.58;98.21;99196.59;104515;1296;22670;-34
2023/03/04 06:59:02;;;;;;;27.50;14.10;;;;;;;0.52;97.90;99194.13;104522;1301;22810;-34
2023/03/04 07:01:28;;;;;;;21.80;11.20;;;;;;;0.61;97.77;99198.80;104436;1305;23160;-29
2023/03/04 07:03:54;;;;;;;22.80;11.30;;;;;;;0.37;99.08;99194.29;104026;1300;22671;-33
2023/03/04 07:06:22;;;;;;;22.00;11.30;;;;;;;0.48;99.27;99202.42;104481;1305;23171;-29
2023/03/04 07:08:47;;;;;;;21.20;12.20;;;;;;;0.60;98.49;99204.90;104525;1295;24392;-29
2023/03/04 07:11:13;;;;;;;22.40;14.50;;;;;;;0.63;98.50;99203.44;104513;1291;23029;-33
2023/03/04 07:13:39;;;;;;;24.40;14.80;;;;;;;0.61;98.44;99193.02;104488;1300;24737;-33
2023/03/04 07:16:06;;;;;;;19.60;12.20;;;;;;;0.88;96.96;99199.69;104488;1295;22654;-29
2023/03/04 07:18:32;;;;;;;26.80;17.50;;;;;;;0.74;96.89;99196.06;104496;1305;23155;-30
2023/03/04 07:20:59;;;;;;;38.50;13.00;;;;;;;0.85;96.23;99197.91;104544;1294;25488;-34
2023/03/04 07:23:24;;;;;;;28.90;11.40;;;;;;;0.91;96.25;99195.79;104520;1294;23040;-33
2023/03/04 07:25:50;;;;;;;26.10;11.20;;;;;;;0.60;97.15;99200.70;104511;1305;23052;-28
2023/03/04 07:28:16;;;;;;;28.80;17.60;;;;;;;0.67;97.72;99197.23;104477;1305;24266;-29
2023/03/04 07:30:42;;;;;;;24.70;13.20;;;;;;;0.96;96.96;99190.73;104459;1291;22749;-34
2023/03/04 07:33:08;;;;;;;31.80;11.90;;;;;;;0.89;96.52;99190.77;104481;1305;24760;-29
2023/03/04 07:35:34;;;;;;;34.20;18.10;;;;;;;0.85;96.30;99185.68;104500;1295;22813;-29
2023/03/04 07:37:59;;;;;;;31.60;17.60;;;;;;;0.93;95.92;99194.45;104413;1295;22831;-30
2023/03/04 07:40:25;;;;;;;22.90;13.70;;;;;;;0.82;96.86;99189.70;104486;1305;24341;-29
2023/03/04 07:42:51;;;;;;;83.50;31.00;;;;;;;0.79;97.05;99197.90;104498;1305;24228;-36
2023/03/04 07:45:17;;;;;;;31.50;16.90;;;;;;;0.82;97.39;99196.39;104488;1295;22773;-31
2023/03/04 07:47:43;;;;;;;25.50;14.40;;;;;;;0.90;97.41;99202.69;104474;1295;25652;-29
2023/03/04 07:50:10;;;;;;;43.60;24.80;;;;;;;0.96;97.28;99195.14;104507;1294;24241;-33
2023/03/04 07:52:43;;;;;;;22.90;13.10;;;;;;;0.90;97.14;99185.45;104480;1295;24493;-32
2023/03/04 07:55:11;;;;;;;31.40;9.80;;;;;;;0.72;97.83;99193.95;104508;1291;22569;-29
2023/03/04 07:57:41;;;;;;;18.80;12.00;;;;;;;0.71;98.24;99199.80;104487;1295;22589;-29
2023/03/04 08:00:07;;;;;;;31.20;9.40;;;;;;;0.85;97.65;99190.50;104480;1302;23246;-29
2023/03/04 08:02:33;;;;;;;35.50;15.50;;;;;;;0.76;97.64;99197.99;104487;1295;24282;-29
2023/03/04 08:04:59;;;;;;;25.70;12.50;;;;;;;0.86;97.58;99191.48;104469;1294;24295;-31
2023/03/04 08:07:24;;;;;;;25.40;14.40;;;;;;;0.81;98.16;99194.48;104576;1305;23176;-34
2023/03/04 08:09:50;;;;;;;31.10;8.80;;;;;;;0.79;98.63;99199.45;104436;1302;23028;-34
2023/03/04 08:12:16;;;;;;;26.70;15.50;;;;;;;0.90;98.91;99199.88;104436;1298;22673;-35
2023/03/04 08:14:42;;;;;;;10.60;7.20;;;;;;;0.94;98.17;99197.77;104464;1295;22809;-31
2023/03/04 08:17:08;;;;;;;18.40;8.00;;;;;;;0.89;98.84;99200.33;104498;1304;22566;-35
2023/03/04 08:19:35;;;;;;;13.40;8.70;;;;;;;0.92;99.08;99191.39;104494;1298;24313;-35
2023/03/04 08:22:01;;;;;;;18.30;11.40;;;;;;;1.20;98.39;99194.80;104484;1305;24433;-31
2023/03/04 08:24:27;;;;;;;14.10;8.70;;;;;;;1.37;96.81;99189.52;104378;1295;22684;-35
2023/03/04 08:26:52;;;;;;;17.10;6.10;;;;;;;1.35;96.67;99187.42;104459;1301;24221;-36
2023/03/04 08:29:20;;;;;;;22.00;7.70;;;;;;;1.34;97.20;99186.65;104431;1294;22741;-29
2023/03/04 08:31:47;;;;;;;16.00;7.90;;;;;;;1.44;96.66;99171.81;104412;1301;24311;-30
2023/03/04 08:34:13;;;;;;;21.90;12.10;;;;;;;1.39;96.83;99182.13;104560;1295;24301;-29
2023/03/04 08:36:41;;;;;;;17.50;8.50;;;;;;;1.44;96.78;99176.55;104475;1294;24267;-32
2023/03/04 08:39:07;;;;;;;20.20;9.20;;;;;;;1.26;98.08;99177.02;104479;1305;25430;-34
2023/03/04 08:41:33;;;;;;;12.80;8.00;;;;;;;1.30;98.53;99176.40;104507;1294;22699;-34
2023/03/04 08:43:59;;;;;;;25.90;10.20;;;;;;;1.39;98.01;99169.27;104375;1298;24266;-34
2023/03/04 08:46:25;;;;;;;17.10;10.90;;;;;;;1.17;98.03;99166.36;104545;1305;24309;-34
2023/03/04 08:48:50;;;;;;;16.80;9.30;;;;;;;1.40;98.59;99169.51;104423;1305;24317;-30
2023/03/04 08:51:16;;;;;;;14.00;9.40;;;;;;;1.52;97.84;99167.69;104451;1295;22826;-30
2023/03/04 08:53:42;;;;;;;13.60;6.80;;;;;;;1.31;98.53;99166.34;104513;1294;24369;-35
2023/03/04 08:56:09;;;;;;;12.40;9.40;;;;;;;1.39;99.26;99163.73;104497;1292;24855;-34
2023/03/04 08:58:34;;;;;;;18.90;9.50;;;;;;;1.44;99.59;99164.04;104486;1294;24362;-33
2023/03/04 09:01:01;;;;;;;13.80;8.10;;;;;;;1.39;99.74;99165.92;104511;1294;24346;-34
2023/03/04 09:03:28;;;;;;;18.80;8.40;;;;;;;1.52;99.93;99166.60;104463;1305;23011;-30
2023/03/04 09:05:53;;;;;;;16.80;9.40;;;;;;;1.44;100.00;99168.27;104461;1305;22553;-34
2023/03/04 09:08:19;;;;;;;17.90;7.90;;;;;;;1.38;100.00;99167.23;104445;1294;25374;-34
2023/03/04 09:10:46;;;;;;;18.60;7.10;;;;;;;1.53;100.00;99154.20;104517;1294;22825;-35
2023/03/04 09:13:15;;;;;;;19.60;7.70;;;;;;;1.34;100.00;99160.89;104499;1295;24220;-34
2023/03/04 09:15:44;;;;;;;18.10;10.90;;;;;;;1.36;100.00;99156.11;104502;1296;22563;-31
2023/03/04 09:18:10;;;;;;;14.70;7.30;;;;;;;1.55;100.00;99150.27;104449;1291;22656;-34
2023/03/04 09:20:35;;;;;;;22.70;12.60;;;;;;;1.40;100.00;99152.43;104435;1305;22642;-30
2023/03/04 09:23:03;;;;;;;15.80;10.60;;;;;;;1.34;100.00;99145.59;104528;1291;22737;-34
2023/03/04 09:25:29;;;;;;;22.40;12.70;;;;;;;1.40;100.00;99148.36;104474;1294;24812;-34
2023/03/04 09:27:54;;;;;;;23.30;15.90;;;;;;;1.48;100.00;99147.94;104464;1294;24196;-33
2023/03/04 09:30:20;;;;;;;14.40;8.30;;;;;;;1.69;100.00;99143.30;104419;1295;23028;-34
2023/03/04 09:32:46;;;;;;;17.30;9.80;;;;;;;1.64;100.00;99146.23;104387;1295;22670;-29
2023/03/04 09:35:12;;;;;;;18.10;9.70;;;;;;;1.63;100.00;99144.58;104444;1305;23029;-30
2023/03/04 09:37:38;;;;;;;12.50;8.30;;;;;;;1.49;100.00;99145.55;104456;1305;23245;-30
2023/03/04 09:40:05;;;;;;;15.40;10.20;;;;;;;1.91;100.00;99148.96;104476;1305;24261;-31
2023/03/04 09:42:35;;;;;;;16.10;9.20;;;;;;;1.69;100.00;99146.67;104521;1305;24321;-33
2023/03/04 09:45:02;;;;;;;13.60;9.40;;;;;;;1.62;100.00;99143.94;104510;1305;24323;-34
2023/03/04 09:47:27;;;;;;;21.00;11.20;;;;;;;1.56;100.00;99143.55;104385;1304;23028;-30
2023/03/04 09:50:02;;;;;;;15.60;9.70;;;;;;;1.56;100.00;99144.38;104514;1305;24234;-30
2023/03/04 09:52:51;;;;;;;14.30;9.90;;;;;;;1.70;100.00;99139.90;104455;1282;22598;-30
2023/03/04 09:55:31;;;;;;;18.20;8.90;;;;;;;1.92;100.00;99139.64;104440;1291;22665;-34
2023/03/04 09:58:28;;;;;;;12.80;8.80;;;;;;;1.93;100.00;99133.98;104505;1294;24331;-35
2023/03/04 10:01:01;;;;;;;23.10;9.50;;;;;;;1.89;100.00;99132.25;104434;1295;22748;-34
2023/03/04 10:03:32;;;;;;;24.00;10.60;;;;;;;1.90;100.00;99118.71;104454;1294;22539;-36
2023/03/04 10:06:03;;;;;;;24.50;15.10;;;;;;;1.77;100.00;99128.80;104482;1298;22952;-34
2023/03/04 10:08:47;;;;;;;40.50;17.70;;;;;;;1.86;100.00;99124.80;104432;1295;24183;-30
2023/03/04 10:11:27;;;;;;;25.30;16.30;;;;;;;1.94;100.00;99119.73;104417;1294;24438;-30
2023/03/04 10:14:07;;;;;;;45.10;19.40;;;;;;;1.96;100.00;99115.70;104467;1295;24401;-35
2023/03/04 10:16:41;;;;;;;31.10;15.20;;;;;;;1.98;100.00;99116.53;104429;1288;24801;-33
2023/03/04 10:19:29;;;;;;;38.40;22.70;;;;;;;2.16;100.00;99109.30;104419;1295;22609;-29
2023/03/04 10:21:55;;;;;;;58.50;33.30;;;;;;;2.05;100.00;99112.52;104268;1305;24808;-33
2023/03/04 10:24:26;;;;;;;28.40;17.20;;;;;;;2.11;100.00;99112.59;104502;1305;22801;-31
2023/03/04 10:26:55;;;;;;;44.00;16.10;;;;;;;2.12;100.00;99105.42;104492;1292;23022;-42
2023/03/04 10:29:23;;;;;;;72.40;38.00;;;;;;;2.16;100.00;99102.23;104537;1291;24290;-30
2023/03/04 10:31:50;;;;;;;29.80;13.90;;;;;;;2.05;100.00;99102.04;104502;1290;24920;-30
2023/03/04 10:34:16;;;;;;;22.80;15.10;;;;;;;2.27;100.00;99094.25;104414;1304;22561;-29
2023/03/04 10:36:59;;;;;;;30.90;16.30;;;;;;;2.20;100.00;99096.59;104470;1294;24818;-30
2023/03/04 10:39:32;;;;;;;33.90;16.30;;;;;;;2.35;100.00;99095.44;104449;1295;24197;-35
2023/03/04 10:42:01;;;;;;;16.90;10.90;;;;;;;2.46;100.00;99091.70;104517;1291;24280;-34
2023/03/04 10:44:27;;;;;;;17.20;12.60;;;;;;;2.62;100.00;99085.81;104482;1282;25582;-35
2023/03/04 10:46:55;;;;;;;25.50;11.40;;;;;;;2.56;100.00;99080.80;104422;1305;23167;-30
2023/03/04 10:49:21;;;;;;;23.40;9.70;;;;;;;2.83;99.82;99076.45;104510;1291;22750;-34
2023/03/04 10:51:50;;;;;;;19.50;10.10;;;;;;;2.52;99.99;99074.32;104476;1305;22639;-33
2023/03/04 10:54:23;;;;;;;22.90;12.40;;;;;;;2.70;100.00;99079.34;104508;1294;22589;-33
2023/03/04 10:56:55;;;;;;;18.30;10.20;;;;;;;2.93;100.00;99070.89;104488;1305;22664;-29
2023/03/04 10:59:45;;;;;;;10.70;6.60;;;;;;;2.88;99.97;99066.77;104468;1294;22677;-30
2023/03/04 11:02:26;;;;;;;17.40;10.90;;;;;;;2.72;99.94;99072.44;104446;1295;22670;-34
2023/03/04 11:05:04;;;;;;;17.90;10.10;;;;;;;2.90;99.89;99068.90;104484;1301;22667;-35
2023/03/04 11:46:30;;;;;;;20.50;11.00;;;;;;;2.58;100.00;99060.02;104180;1292;557850;-31
2023/03/04 11:49:15;;;;;;;12.20;9.20;;;;;;;2.91;100.00;99050.05;104066;1294;512896;-30
2023/03/04 11:52:05;;;;;;;7.00;4.90;;;;;;;2.77;100.00;99056.20;104450;1306;24238;-34
2023/03/04 11:54:40;;;;;;;11.50;6.10;;;;;;;2.58;100.00;99058.86;104498;1294;22552;-35
2023/03/04 11:57:31;;;;;;;9.60;6.70;;;;;;;2.71;100.00;99056.67;104348;1288;24233;-35
2023/03/04 12:00:19;;;;;;;18.50;10.80;;;;;;;2.78;100.00;99039.80;104361;1303;22623;-30
2023/03/04 12:03:11;;;;;;;11.40;7.50;;;;;;;2.75;100.00;99039.14;104405;1294;23043;-31
2023/03/04 12:05:54;;;;;;;11.20;8.20;;;;;;;2.83;100.00;99040.35;104381;1306;24360;-30
2023/03/04 12:08:47;;;;;;;10.20;8.60;;;;;;;2.99;100.00;99037.51;104190;1306;24300;-31
2023/03/04 12:11:39;;;;;;;13.60;9.50;;;;;;;2.99;100.00;99033.78;104399;1294;22783;-31
2023/03/04 12:14:21;;;;;;;6.00;5.00;;;;;;;3.02;100.00;99023.59;104461;1294;24796;-35
2023/03/04 12:17:02;;;;;;;17.30;10.00;;;;;;;2.82;100.00;99026.95;104502;1294;24205;-32
2023/03/04 12:19:46;;;;;;;6.40;4.10;;;;;;;2.99;100.00;99026.75;104460;1306;24326;-34
2023/03/04 12:22:36;;;;;;;13.70;8.20;;;;;;;2.89;100.00;99027.77;104456;1306;25305;-28
2023/03/04 12:25:18;;;;;;;14.40;8.10;;;;;;;3.02;100.00;99020.56;104419;1294;22816;-30
2023/03/04 12:28:00;;;;;;;9.60;5.00;;;;;;;3.40;100.00;99026.55;104396;1294;22985;-32
2023/03/04 12:30:45;;;;;;;9.40;5.60;;;;;;;3.33;99.99;99022.21;104484;1294;22552;-33
2023/03/04 12:33:34;;;;;;;8.00;4.20;;;;;;;3.27;100.00;99020.83;104483;1306;22550;-30